createdAt,value
2023-03-19T00:02:52.058Z,9.00
2023-03-19T00:06:54.797Z,9.00
2023-03-19T00:10:56.639Z,9.00
2023-03-19T00:14:58.468Z,9.00
2023-03-19T00:19:00.301Z,9.00
2023-03-19T00:23:02.085Z,9.00
2023-03-19T00:27:04.323Z,8.90
2023-03-19T00:31:12.190Z,9.00
2023-03-19T00:35:14.827Z,8.90
2023-03-19T00:39:16.706Z,8.90
2023-03-19T00:43:18.549Z,8.80
2023-03-19T00:47:20.513Z,8.80
2023-03-19T00:51:23.665Z,8.80
2023-03-19T00:55:27.357Z,8.80
2023-03-19T00:59:29.248Z,8.80
2023-03-19T01:03:32.234Z,8.80
2023-03-19T01:07:34.021Z,8.70
2023-03-19T01:11:36.257Z,8.70
2023-03-19T01:15:43.232Z,8.70
2023-03-19T01:19:45.045Z,8.70
2023-03-19T01:23:46.895Z,8.70
2023-03-19T01:27:48.837Z,8.60
2023-03-19T01:31:51.374Z,8.60
2023-03-19T01:35:53.507Z,8.60
2023-03-19T01:39:55.359Z,8.60
2023-03-19T01:43:57.277Z,8.60
2023-03-19T01:47:59.164Z,8.60
2023-03-19T01:52:02.713Z,8.60
2023-03-19T01:56:14.946Z,8.60
2023-03-19T02:00:17.236Z,8.50
2023-03-19T02:04:19.299Z,8.60
2023-03-19T02:08:23.123Z,8.60
2023-03-19T02:12:24.996Z,8.60
2023-03-19T02:16:27.246Z,8.60
2023-03-19T02:20:59.533Z,8.60
2023-03-19T02:25:14.703Z,8.60
2023-03-19T02:29:16.629Z,8.60
2023-03-19T02:33:18.956Z,8.60
2023-03-19T02:37:27.571Z,8.50
2023-03-19T02:41:30.040Z,8.60
2023-03-19T02:45:32.271Z,8.60
2023-03-19T02:49:34.152Z,8.60
2023-03-19T02:53:36.236Z,8.50
2023-03-19T02:57:38.050Z,8.50
2023-03-19T03:01:40.043Z,8.50
2023-03-19T03:05:48.658Z,8.50
2023-03-19T03:09:56.982Z,8.40
2023-03-19T03:14:11.650Z,8.40
2023-03-19T03:18:19.697Z,8.40
2023-03-19T03:22:27.725Z,8.50
2023-03-19T03:26:35.945Z,8.50
2023-03-19T03:30:38.216Z,8.40
2023-03-19T03:34:41.163Z,8.30
2023-03-19T03:38:42.973Z,8.30
2023-03-19T03:42:44.899Z,8.30
2023-03-19T03:46:46.774Z,8.20
2023-03-19T03:50:50.833Z,8.20
2023-03-19T03:54:52.855Z,8.10
2023-03-19T03:58:55.826Z,8.10
2023-03-19T04:02:57.735Z,8.10
2023-03-19T04:06:59.856Z,8.10
2023-03-19T04:11:07.190Z,8.10
2023-03-19T04:15:10.984Z,8.10
2023-03-19T04:19:12.814Z,8.10
2023-03-19T04:23:14.774Z,8.20
2023-03-19T04:27:16.655Z,8.20
2023-03-19T04:31:18.527Z,8.20
2023-03-19T04:35:21.597Z,8.20
2023-03-19T04:39:24.408Z,8.20
2023-03-19T04:43:26.237Z,8.20
2023-03-19T04:47:28.085Z,8.20
2023-03-19T04:51:29.896Z,8.30
2023-03-19T04:55:32.507Z,8.20
2023-03-19T04:59:34.358Z,8.10
2023-03-19T05:03:36.299Z,8.10
2023-03-19T05:07:38.118Z,8.00
2023-03-19T05:11:40.004Z,8.00
2023-03-19T05:15:43.666Z,7.90
2023-03-19T05:19:45.963Z,7.80
2023-03-19T05:23:57.194Z,7.80
2023-03-19T05:28:03.517Z,7.70
2023-03-19T05:32:07.105Z,7.70
2023-03-19T05:36:11.922Z,7.70
2023-03-19T05:40:18.454Z,7.70
2023-03-19T05:44:21.351Z,7.70
2023-03-19T05:48:23.603Z,7.80
2023-03-19T05:52:25.705Z,7.80
2023-03-19T05:56:27.776Z,7.90
2023-03-19T06:00:29.807Z,7.90
2023-03-19T06:04:31.769Z,8.10
2023-03-19T06:08:34.130Z,8.10
2023-03-19T06:12:36.327Z,8.20
2023-03-19T06:16:38.547Z,8.40
2023-03-19T06:20:40.455Z,8.50
2023-03-19T06:24:44.753Z,8.60
2023-03-19T06:28:46.954Z,8.60
2023-03-19T06:32:49.058Z,8.80
2023-03-19T06:36:51.082Z,9.00
2023-03-19T06:40:53.081Z,9.10
2023-03-19T06:44:54.866Z,9.40
2023-03-19T06:48:59.817Z,9.80
2023-03-19T06:53:04.514Z,10.00
2023-03-19T06:57:06.633Z,10.20
2023-03-19T07:01:09.224Z,10.40
2023-03-19T07:05:11.245Z,10.50
2023-03-19T07:09:13.284Z,10.70
2023-03-19T07:13:15.523Z,11.00
2023-03-19T07:17:17.466Z,11.10
2023-03-19T07:21:19.333Z,11.30
2023-03-19T07:25:21.462Z,11.20
2023-03-19T07:29:24.073Z,11.50
2023-03-19T07:33:26.350Z,11.60
2023-03-19T07:37:28.678Z,11.70
2023-03-19T07:41:34.001Z,11.60
2023-03-19T07:45:36.806Z,11.70
2023-03-19T07:49:40.240Z,11.80
2023-03-19T07:53:44.870Z,12.20
2023-03-19T07:57:46.826Z,12.20
2023-03-19T08:01:49.322Z,12.40
2023-03-19T08:05:52.784Z,12.20
2023-03-19T08:09:55.116Z,12.50
2023-03-19T08:14:00.826Z,12.60
2023-03-19T08:18:04.979Z,12.60
2023-03-19T08:22:07.504Z,12.90
2023-03-19T08:26:09.447Z,13.00
2023-03-19T08:30:12.701Z,13.10
2023-03-19T08:34:17.585Z,13.20
2023-03-19T08:38:20.129Z,13.40
2023-03-19T08:42:22.744Z,13.50
2023-03-19T08:46:29.100Z,13.30
2023-03-19T08:50:32.630Z,13.50
2023-03-19T08:54:37.800Z,13.50
2023-03-19T08:58:41.626Z,13.70
2023-03-19T09:02:43.820Z,13.70
2023-03-19T09:06:53.047Z,13.70
2023-03-19T09:10:56.452Z,14.00
2023-03-19T09:15:01.313Z,14.00
2023-03-19T09:19:03.222Z,14.10
2023-03-19T09:23:05.466Z,14.30
2023-03-19T09:27:07.327Z,14.30
2023-03-19T09:31:11.657Z,14.50
2023-03-19T09:35:13.887Z,14.50
2023-03-19T09:39:18.382Z,14.60
2023-03-19T09:44:21.606Z,14.70
2023-03-19T09:48:36.203Z,14.70
2023-03-19T09:53:00.330Z,14.90
2023-03-19T09:57:02.663Z,14.90
2023-03-19T10:01:05.072Z,15.10
2023-03-19T10:05:22.738Z,15.20
2023-03-19T10:09:58.097Z,15.40
2023-03-19T10:14:33.063Z,15.50
2023-03-19T10:18:36.266Z,15.70
2023-03-19T10:22:46.424Z,15.90
2023-03-19T10:26:48.471Z,15.90
2023-03-19T10:31:21.271Z,16.10
2023-03-19T10:35:28.947Z,16.30
2023-03-19T10:39:39.741Z,16.40
2023-03-19T10:44:11.874Z,16.50
2023-03-19T10:48:22.559Z,16.50
2023-03-19T10:52:32.097Z,16.50
2023-03-19T10:56:41.060Z,16.50
2023-03-19T11:01:28.504Z,16.60
2023-03-19T11:05:36.788Z,16.60
2023-03-19T11:09:58.761Z,16.50
2023-03-19T11:14:33.614Z,16.50
2023-03-19T11:18:47.322Z,16.70
2023-03-19T11:23:04.744Z,16.60
2023-03-19T11:27:08.349Z,16.60
2023-03-19T11:31:27.577Z,16.60
2023-03-19T11:35:54.989Z,16.80
2023-03-19T11:40:47.917Z,17.10
2023-03-19T11:45:39.193Z,17.30
2023-03-19T11:49:54.474Z,17.20
2023-03-19T11:54:40.827Z,17.60
2023-03-19T11:58:53.764Z,17.60
2023-03-19T12:03:15.402Z,17.60
2023-03-19T12:07:26.608Z,17.70
2023-03-19T12:11:45.546Z,17.80
2023-03-19T12:16:02.362Z,18.00
2023-03-19T12:20:27.895Z,18.20
2023-03-19T12:24:57.823Z,18.20
2023-03-19T12:29:18.602Z,18.20
2023-03-19T12:34:01.831Z,18.10
2023-03-19T12:38:17.649Z,17.90
2023-03-19T12:42:20.148Z,17.90
2023-03-19T12:46:34.525Z,18.00
2023-03-19T12:50:38.302Z,18.10
2023-03-19T12:55:00.663Z,18.10
2023-03-19T12:59:57.606Z,18.10
2023-03-19T13:04:24.720Z,18.30
2023-03-19T13:09:17.690Z,18.20
2023-03-19T13:13:46.524Z,18.10
2023-03-19T13:18:17.990Z,18.10
2023-03-19T13:22:28.517Z,18.00
2023-03-19T13:26:31.150Z,18.10
2023-03-19T13:30:33.314Z,18.00
2023-03-19T13:34:36.978Z,18.20
2023-03-19T13:38:51.991Z,18.00
2023-03-19T13:42:57.690Z,18.10
2023-03-19T13:47:23.228Z,17.90
2023-03-19T13:51:27.073Z,18.00
2023-03-19T13:55:34.437Z,18.00
2023-03-19T13:59:36.979Z,18.00
2023-03-19T14:04:03.080Z,18.00
2023-03-19T14:08:17.298Z,17.90
2023-03-19T14:12:21.367Z,17.80
2023-03-19T14:16:26.722Z,17.70
2023-03-19T14:20:53.866Z,17.70
2023-03-19T14:25:19.648Z,17.70
2023-03-19T14:29:21.600Z,17.60
2023-03-19T14:33:33.067Z,17.70
2023-03-19T14:37:49.074Z,17.70
2023-03-19T14:41:59.425Z,17.70
2023-03-19T14:46:04.237Z,17.70
2023-03-19T14:50:41.475Z,17.70
2023-03-19T14:54:58.739Z,17.80
2023-03-19T14:59:07.872Z,17.80
2023-03-19T15:03:37.279Z,17.90
2023-03-19T15:07:48.614Z,17.80
2023-03-19T15:12:33.722Z,17.90
2023-03-19T15:16:57.495Z,17.90
2023-03-19T15:21:24.559Z,17.90
2023-03-19T15:25:39.704Z,17.90
2023-03-19T15:29:41.807Z,17.90
2023-03-19T15:33:46.224Z,17.90
2023-03-19T15:37:52.151Z,17.70
2023-03-19T15:41:54.355Z,17.40
2023-03-19T15:45:59.454Z,17.20
2023-03-19T15:50:14.713Z,17.00
2023-03-19T15:54:16.658Z,17.00
2023-03-19T15:58:31.253Z,16.80
2023-03-19T16:02:34.949Z,16.70
2023-03-19T16:06:39.685Z,16.70
2023-03-19T16:10:45.762Z,16.60
2023-03-19T16:14:47.595Z,16.50
2023-03-19T16:18:55.509Z,16.40
2023-03-19T16:23:00.374Z,16.20
2023-03-19T16:27:08.949Z,16.10
2023-03-19T16:31:24.339Z,15.90
2023-03-19T16:35:27.184Z,15.90
2023-03-19T16:39:37.327Z,15.70
2023-03-19T16:43:40.467Z,15.60
2023-03-19T16:48:03.531Z,15.50
2023-03-19T16:52:05.698Z,15.50
2023-03-19T16:56:09.508Z,15.30
2023-03-19T17:00:15.072Z,15.10
2023-03-19T17:04:17.809Z,15.00
2023-03-19T17:08:21.912Z,14.90
2023-03-19T17:12:24.432Z,14.80
2023-03-19T17:16:29.563Z,14.80
2023-03-19T17:20:36.487Z,14.80
2023-03-19T17:24:41.538Z,14.70
2023-03-19T17:28:43.702Z,14.60
2023-03-19T17:32:51.245Z,14.50
2023-03-19T17:37:02.454Z,14.40
2023-03-19T17:41:21.165Z,14.40
2023-03-19T17:45:29.915Z,14.30
2023-03-19T17:49:34.185Z,14.30
2023-03-19T17:53:39.104Z,14.30
2023-03-19T17:57:41.561Z,14.10
2023-03-19T18:01:43.752Z,14.00
2023-03-19T18:05:53.788Z,14.00
2023-03-19T18:09:58.503Z,13.90
2023-03-19T18:14:06.113Z,13.80
2023-03-19T18:18:13.924Z,13.80
2023-03-19T18:22:22.935Z,13.70
2023-03-19T18:26:26.071Z,13.60
2023-03-19T18:30:29.789Z,13.50
2023-03-19T18:34:37.476Z,13.40
2023-03-19T18:38:39.664Z,13.40
2023-03-19T18:42:56.471Z,13.40
2023-03-19T18:46:59.596Z,13.40
2023-03-19T18:51:12.398Z,13.30
2023-03-19T18:55:17.624Z,13.30
2023-03-19T18:59:32.164Z,13.20
2023-03-19T19:03:37.931Z,13.20
2023-03-19T19:07:47.059Z,13.10
2023-03-19T19:11:49.034Z,13.20
2023-03-19T19:15:59.967Z,13.20
2023-03-19T19:20:03.099Z,13.10
2023-03-19T19:24:08.570Z,13.10
2023-03-19T19:28:26.730Z,13.20
2023-03-19T19:32:32.000Z,13.20
2023-03-19T19:36:37.160Z,13.30
2023-03-19T19:40:40.350Z,13.20
2023-03-19T19:44:43.975Z,13.10
2023-03-19T19:48:48.529Z,13.10
2023-03-19T19:52:50.682Z,13.10
2023-03-19T19:57:03.914Z,13.10
2023-03-19T20:01:30.048Z,13.00
2023-03-19T20:05:34.906Z,13.00
2023-03-19T20:09:37.040Z,13.00
2023-03-19T20:13:41.325Z,13.00
2023-03-19T20:17:44.034Z,13.00
2023-03-19T20:21:46.214Z,13.00
2023-03-19T20:25:52.473Z,13.00
2023-03-19T20:29:57.347Z,13.00
2023-03-19T20:34:02.468Z,13.00
2023-03-19T20:38:06.297Z,12.90
2023-03-19T20:42:15.208Z,12.90
2023-03-19T20:46:21.564Z,12.90
2023-03-19T20:50:29.840Z,12.80
2023-03-19T20:54:32.278Z,12.70
2023-03-19T20:58:36.847Z,12.60
2023-03-19T21:02:41.077Z,12.60
2023-03-19T21:06:53.058Z,12.60
2023-03-19T21:10:56.011Z,12.50
2023-03-19T21:15:00.325Z,12.50
2023-03-19T21:19:07.827Z,12.50
2023-03-19T21:23:32.090Z,12.50
2023-03-19T21:27:36.311Z,12.40
2023-03-19T21:31:39.404Z,12.40
2023-03-19T21:35:41.746Z,12.20
2023-03-19T21:39:44.057Z,12.10
2023-03-19T21:43:52.882Z,12.00
2023-03-19T21:48:34.633Z,11.90
2023-03-19T21:52:53.667Z,11.90
2023-03-19T21:56:58.613Z,11.80
2023-03-19T22:01:01.193Z,11.80
2023-03-19T22:05:03.831Z,11.80
2023-03-19T22:09:06.020Z,11.80
2023-03-19T22:13:26.429Z,11.70
2023-03-19T22:17:32.180Z,11.70
2023-03-19T22:21:34.016Z,11.70
2023-03-19T22:25:39.964Z,11.70
2023-03-19T22:29:47.109Z,11.70
2023-03-19T22:33:49.002Z,11.80
2023-03-19T22:37:51.069Z,11.80
2023-03-19T22:41:53.197Z,11.90
2023-03-19T22:45:59.228Z,11.90
2023-03-19T22:50:01.233Z,12.00
2023-03-19T22:54:05.329Z,12.10
2023-03-19T22:58:07.502Z,12.10
2023-03-19T23:02:14.245Z,12.10
2023-03-19T23:06:29.768Z,12.00
2023-03-19T23:10:32.831Z,12.10
2023-03-19T23:14:34.828Z,12.10
2023-03-19T23:18:37.082Z,12.10
2023-03-19T23:22:38.983Z,12.00
2023-03-19T23:26:46.712Z,12.00
2023-03-19T23:30:50.348Z,11.90
2023-03-19T23:35:00.524Z,11.90
2023-03-19T23:39:04.668Z,11.80
2023-03-19T23:43:07.537Z,11.90
2023-03-19T23:47:09.435Z,11.90
2023-03-19T23:51:14.944Z,11.90
2023-03-19T23:55:17.124Z,11.80
2023-03-19T23:59:18.977Z,11.80
